sensor_id;sensor_type;location;lat;lon;timestamp;P1;durP1;ratioP1;P2;durP2;ratioP2
3589;SDS011;1809;48.470;9.226;2023-04-03T00:02:07;4.47;;;4.17;;
3589;SDS011;1809;48.470;9.226;2023-04-03T00:04:33;3.90;;;3.67;;
3589;SDS011;1809;48.470;9.226;2023-04-03T00:06:58;4.37;;;3.80;;
3589;SDS011;1809;48.470;9.226;2023-04-03T00:09:23;5.37;;;4.07;;
3589;SDS011;1809;48.470;9.226;2023-04-03T00:11:49;4.47;;;4.07;;
3589;SDS011;1809;48.470;9.226;2023-04-03T00:14:14;4.70;;;4.30;;
3589;SDS011;1809;48.470;9.226;2023-04-03T00:16:40;7.10;;;3.73;;
3589;SDS011;1809;48.470;9.226;2023-04-03T00:19:05;5.00;;;4.50;;
3589;SDS011;1809;48.470;9.226;2023-04-03T00:21:30;4.97;;;3.80;;
3589;SDS011;1809;48.470;9.226;2023-04-03T00:23:56;4.40;;;3.83;;
3589;SDS011;1809;48.470;9.226;2023-04-03T00:26:21;7.03;;;5.93;;
3589;SDS011;1809;48.470;9.226;2023-04-03T00:28:47;4.63;;;4.23;;
3589;SDS011;1809;48.470;9.226;2023-04-03T00:31:14;6.13;;;3.90;;
3589;SDS011;1809;48.470;9.226;2023-04-03T00:33:41;6.60;;;4.20;;
3589;SDS011;1809;48.470;9.226;2023-04-03T00:36:07;4.87;;;4.43;;
3589;SDS011;1809;48.470;9.226;2023-04-03T00:38:34;7.20;;;4.97;;
3589;SDS011;1809;48.470;9.226;2023-04-03T00:40:59;4.10;;;3.80;;
3589;SDS011;1809;48.470;9.226;2023-04-03T00:43:25;4.40;;;4.00;;
3589;SDS011;1809;48.470;9.226;2023-04-03T00:45:56;4.00;;;3.67;;
3589;SDS011;1809;48.470;9.226;2023-04-03T00:48:25;5.17;;;4.30;;
3589;SDS011;1809;48.470;9.226;2023-04-03T00:50:54;4.10;;;3.73;;
3589;SDS011;1809;48.470;9.226;2023-04-03T00:53:31;4.07;;;3.70;;
3589;SDS011;1809;48.470;9.226;2023-04-03T00:56:00;3.50;;;3.17;;
3589;SDS011;1809;48.470;9.226;2023-04-03T00:58:33;9.60;;;3.83;;
3589;SDS011;1809;48.470;9.226;2023-04-03T01:01:05;5.87;;;5.10;;
3589;SDS011;1809;48.470;9.226;2023-04-03T01:03:36;4.67;;;4.27;;
3589;SDS011;1809;48.470;9.226;2023-04-03T01:06:02;3.43;;;3.20;;
3589;SDS011;1809;48.470;9.226;2023-04-03T01:08:27;5.77;;;4.20;;
3589;SDS011;1809;48.470;9.226;2023-04-03T01:10:53;4.30;;;4.00;;
3589;SDS011;1809;48.470;9.226;2023-04-03T01:13:20;3.97;;;3.63;;
3589;SDS011;1809;48.470;9.226;2023-04-03T01:15:53;4.87;;;4.33;;
3589;SDS011;1809;48.470;9.226;2023-04-03T01:18:19;5.90;;;3.83;;
3589;SDS011;1809;48.470;9.226;2023-04-03T01:26:17;4.53;;;4.10;;
3589;SDS011;1809;48.470;9.226;2023-04-03T01:28:42;4.77;;;4.23;;
3589;SDS011;1809;48.470;9.226;2023-04-03T01:34:05;5.47;;;5.00;;
3589;SDS011;1809;48.470;9.226;2023-04-03T01:36:31;4.73;;;4.00;;
3589;SDS011;1809;48.470;9.226;2023-04-03T01:38:58;5.50;;;4.60;;
3589;SDS011;1809;48.470;9.226;2023-04-03T01:41:24;5.00;;;4.57;;
3589;SDS011;1809;48.470;9.226;2023-04-03T01:43:51;4.90;;;4.50;;
3589;SDS011;1809;48.470;9.226;2023-04-03T01:46:16;6.83;;;4.53;;
3589;SDS011;1809;48.470;9.226;2023-04-03T01:48:43;4.47;;;3.67;;
3589;SDS011;1809;48.470;9.226;2023-04-03T01:51:08;4.40;;;4.00;;
3589;SDS011;1809;48.470;9.226;2023-04-03T01:53:34;5.17;;;4.27;;
3589;SDS011;1809;48.470;9.226;2023-04-03T01:56:00;6.40;;;4.23;;
3589;SDS011;1809;48.470;9.226;2023-04-03T01:58:25;5.20;;;4.37;;
3589;SDS011;1809;48.470;9.226;2023-04-03T02:00:51;6.17;;;3.70;;
3589;SDS011;1809;48.470;9.226;2023-04-03T02:03:16;5.00;;;3.70;;
3589;SDS011;1809;48.470;9.226;2023-04-03T02:05:41;7.53;;;4.60;;
3589;SDS011;1809;48.470;9.226;2023-04-03T02:08:07;9.43;;;4.40;;
3589;SDS011;1809;48.470;9.226;2023-04-03T02:10:32;5.00;;;4.50;;
3589;SDS011;1809;48.470;9.226;2023-04-03T02:12:58;4.00;;;3.70;;
3589;SDS011;1809;48.470;9.226;2023-04-03T02:15:23;5.37;;;4.80;;
3589;SDS011;1809;48.470;9.226;2023-04-03T02:17:49;6.40;;;5.23;;
3589;SDS011;1809;48.470;9.226;2023-04-03T02:20:15;9.43;;;4.17;;
3589;SDS011;1809;48.470;9.226;2023-04-03T02:22:40;4.50;;;4.17;;
3589;SDS011;1809;48.470;9.226;2023-04-03T02:25:06;4.80;;;4.40;;
3589;SDS011;1809;48.470;9.226;2023-04-03T02:27:32;4.60;;;4.20;;
3589;SDS011;1809;48.470;9.226;2023-04-03T02:29:57;5.83;;;4.50;;
3589;SDS011;1809;48.470;9.226;2023-04-03T02:32:26;7.17;;;5.20;;
3589;SDS011;1809;48.470;9.226;2023-04-03T02:34:52;5.00;;;4.60;;
3589;SDS011;1809;48.470;9.226;2023-04-03T02:37:17;5.90;;;5.17;;
3589;SDS011;1809;48.470;9.226;2023-04-03T02:39:43;4.67;;;4.23;;
3589;SDS011;1809;48.470;9.226;2023-04-03T02:42:08;5.23;;;4.73;;
3589;SDS011;1809;48.470;9.226;2023-04-03T02:44:34;6.00;;;4.60;;
3589;SDS011;1809;48.470;9.226;2023-04-03T02:47:01;4.70;;;4.20;;
3589;SDS011;1809;48.470;9.226;2023-04-03T02:49:28;4.43;;;4.03;;
3589;SDS011;1809;48.470;9.226;2023-04-03T02:51:56;6.40;;;5.43;;
3589;SDS011;1809;48.470;9.226;2023-04-03T02:54:22;5.03;;;4.53;;
3589;SDS011;1809;48.470;9.226;2023-04-03T02:56:49;7.73;;;5.20;;
3589;SDS011;1809;48.470;9.226;2023-04-03T02:59:15;8.80;;;4.70;;
3589;SDS011;1809;48.470;9.226;2023-04-03T03:01:41;5.33;;;4.83;;
3589;SDS011;1809;48.470;9.226;2023-04-03T03:04:07;4.43;;;4.13;;
3589;SDS011;1809;48.470;9.226;2023-04-03T03:06:32;5.27;;;4.70;;
3589;SDS011;1809;48.470;9.226;2023-04-03T03:08:58;5.70;;;5.10;;
3589;SDS011;1809;48.470;9.226;2023-04-03T03:11:24;5.60;;;5.10;;
3589;SDS011;1809;48.470;9.226;2023-04-03T03:13:53;4.80;;;4.40;;
3589;SDS011;1809;48.470;9.226;2023-04-03T03:16:19;7.17;;;5.27;;
3589;SDS011;1809;48.470;9.226;2023-04-03T03:18:44;6.30;;;4.63;;
3589;SDS011;1809;48.470;9.226;2023-04-03T03:21:10;5.03;;;4.53;;
3589;SDS011;1809;48.470;9.226;2023-04-03T03:23:36;5.60;;;4.97;;
3589;SDS011;1809;48.470;9.226;2023-04-03T03:26:03;5.43;;;4.10;;
3589;SDS011;1809;48.470;9.226;2023-04-03T03:28:31;6.57;;;5.27;;
3589;SDS011;1809;48.470;9.226;2023-04-03T03:30:57;5.30;;;4.80;;
3589;SDS011;1809;48.470;9.226;2023-04-03T03:33:23;6.80;;;4.57;;
3589;SDS011;1809;48.470;9.226;2023-04-03T03:35:51;6.07;;;5.10;;
3589;SDS011;1809;48.470;9.226;2023-04-03T03:38:17;6.17;;;5.17;;
3589;SDS011;1809;48.470;9.226;2023-04-03T03:40:43;8.27;;;5.40;;
3589;SDS011;1809;48.470;9.226;2023-04-03T03:43:08;6.10;;;5.30;;
3589;SDS011;1809;48.470;9.226;2023-04-03T03:45:34;4.90;;;4.50;;
3589;SDS011;1809;48.470;9.226;2023-04-03T03:48:00;8.03;;;5.10;;
3589;SDS011;1809;48.470;9.226;2023-04-03T03:50:26;6.57;;;5.63;;
3589;SDS011;1809;48.470;9.226;2023-04-03T03:52:52;6.30;;;5.60;;
3589;SDS011;1809;48.470;9.226;2023-04-03T03:55:18;7.10;;;5.17;;
3589;SDS011;1809;48.470;9.226;2023-04-03T03:57:46;5.70;;;5.13;;
3589;SDS011;1809;48.470;9.226;2023-04-03T04:00:12;8.13;;;5.10;;
3589;SDS011;1809;48.470;9.226;2023-04-03T04:02:38;4.67;;;4.27;;
3589;SDS011;1809;48.470;9.226;2023-04-03T04:05:04;4.73;;;3.40;;
3589;SDS011;1809;48.470;9.226;2023-04-03T04:07:30;6.00;;;4.23;;
3589;SDS011;1809;48.470;9.226;2023-04-03T04:09:55;4.47;;;4.17;;
3589;SDS011;1809;48.470;9.226;2023-04-03T04:12:20;3.30;;;3.00;;
3589;SDS011;1809;48.470;9.226;2023-04-03T04:14:46;7.10;;;3.80;;
3589;SDS011;1809;48.470;9.226;2023-04-03T04:17:12;4.13;;;3.83;;
3589;SDS011;1809;48.470;9.226;2023-04-03T04:19:38;4.50;;;4.10;;
3589;SDS011;1809;48.470;9.226;2023-04-03T04:22:03;4.33;;;4.00;;
3589;SDS011;1809;48.470;9.226;2023-04-03T04:24:29;5.57;;;4.20;;
3589;SDS011;1809;48.470;9.226;2023-04-03T04:26:54;4.03;;;3.73;;
3589;SDS011;1809;48.470;9.226;2023-04-03T04:29:20;3.37;;;3.17;;
3589;SDS011;1809;48.470;9.226;2023-04-03T04:31:45;5.93;;;4.07;;
3589;SDS011;1809;48.470;9.226;2023-04-03T04:34:11;3.63;;;3.33;;
3589;SDS011;1809;48.470;9.226;2023-04-03T04:36:37;3.17;;;2.97;;
3589;SDS011;1809;48.470;9.226;2023-04-03T04:39:03;3.33;;;3.10;;
3589;SDS011;1809;48.470;9.226;2023-04-03T04:41:28;5.57;;;4.50;;
3589;SDS011;1809;48.470;9.226;2023-04-03T04:43:54;3.97;;;3.23;;
3589;SDS011;1809;48.470;9.226;2023-04-03T04:46:20;3.83;;;3.53;;
3589;SDS011;1809;48.470;9.226;2023-04-03T04:48:45;3.07;;;2.97;;
3589;SDS011;1809;48.470;9.226;2023-04-03T04:51:10;5.60;;;3.93;;
3589;SDS011;1809;48.470;9.226;2023-04-03T04:53:36;7.47;;;3.73;;
3589;SDS011;1809;48.470;9.226;2023-04-03T04:56:02;4.10;;;3.80;;
3589;SDS011;1809;48.470;9.226;2023-04-03T04:58:28;3.63;;;3.33;;
3589;SDS011;1809;48.470;9.226;2023-04-03T05:01:02;12.03;;;3.37;;
3589;SDS011;1809;48.470;9.226;2023-04-03T05:03:32;2.83;;;2.63;;
3589;SDS011;1809;48.470;9.226;2023-04-03T05:05:58;3.40;;;3.10;;
3589;SDS011;1809;48.470;9.226;2023-04-03T05:08:24;3.03;;;2.83;;
3589;SDS011;1809;48.470;9.226;2023-04-03T05:10:49;4.03;;;3.60;;
3589;SDS011;1809;48.470;9.226;2023-04-03T05:13:15;3.30;;;3.10;;
3589;SDS011;1809;48.470;9.226;2023-04-03T05:15:41;5.67;;;3.20;;
3589;SDS011;1809;48.470;9.226;2023-04-03T05:18:06;3.90;;;3.50;;
3589;SDS011;1809;48.470;9.226;2023-04-03T05:20:32;4.27;;;3.90;;
3589;SDS011;1809;48.470;9.226;2023-04-03T05:22:58;4.57;;;4.07;;
3589;SDS011;1809;48.470;9.226;2023-04-03T05:25:23;4.53;;;4.13;;
3589;SDS011;1809;48.470;9.226;2023-04-03T05:27:49;4.00;;;3.60;;
3589;SDS011;1809;48.470;9.226;2023-04-03T05:30:15;3.97;;;3.67;;
3589;SDS011;1809;48.470;9.226;2023-04-03T05:32:40;5.07;;;4.20;;
3589;SDS011;1809;48.470;9.226;2023-04-03T05:35:06;7.30;;;3.40;;
3589;SDS011;1809;48.470;9.226;2023-04-03T05:37:32;4.00;;;3.60;;
3589;SDS011;1809;48.470;9.226;2023-04-03T05:39:58;3.27;;;3.13;;
3589;SDS011;1809;48.470;9.226;2023-04-03T05:42:23;2.90;;;2.70;;
3589;SDS011;1809;48.470;9.226;2023-04-03T05:44:48;4.23;;;2.90;;
3589;SDS011;1809;48.470;9.226;2023-04-03T05:47:15;3.47;;;3.20;;
3589;SDS011;1809;48.470;9.226;2023-04-03T05:49:40;3.20;;;3.00;;
3589;SDS011;1809;48.470;9.226;2023-04-03T05:52:28;5.90;;;2.70;;
3589;SDS011;1809;48.470;9.226;2023-04-03T05:54:53;2.60;;;2.23;;
3589;SDS011;1809;48.470;9.226;2023-04-03T05:57:18;2.10;;;2.00;;
3589;SDS011;1809;48.470;9.226;2023-04-03T05:59:45;1.80;;;1.70;;
3589;SDS011;1809;48.470;9.226;2023-04-03T06:02:11;1.70;;;1.60;;
3589;SDS011;1809;48.470;9.226;2023-04-03T06:04:38;2.40;;;2.20;;
3589;SDS011;1809;48.470;9.226;2023-04-03T06:07:03;3.80;;;2.07;;
3589;SDS011;1809;48.470;9.226;2023-04-03T06:09:29;3.20;;;2.23;;
3589;SDS011;1809;48.470;9.226;2023-04-03T06:11:55;7.10;;;1.93;;
3589;SDS011;1809;48.470;9.226;2023-04-03T06:14:21;1.97;;;1.87;;
3589;SDS011;1809;48.470;9.226;2023-04-03T06:16:46;3.37;;;2.60;;
3589;SDS011;1809;48.470;9.226;2023-04-03T06:19:12;4.00;;;2.40;;
3589;SDS011;1809;48.470;9.226;2023-04-03T06:21:38;2.80;;;2.60;;
3589;SDS011;1809;48.470;9.226;2023-04-03T06:24:04;5.37;;;3.27;;
3589;SDS011;1809;48.470;9.226;2023-04-03T06:26:29;2.70;;;2.50;;
3589;SDS011;1809;48.470;9.226;2023-04-03T06:28:55;4.60;;;2.20;;
3589;SDS011;1809;48.470;9.226;2023-04-03T06:31:20;2.37;;;2.17;;
3589;SDS011;1809;48.470;9.226;2023-04-03T06:33:46;3.57;;;2.90;;
3589;SDS011;1809;48.470;9.226;2023-04-03T06:36:12;3.20;;;2.63;;
3589;SDS011;1809;48.470;9.226;2023-04-03T06:38:37;2.20;;;2.00;;
3589;SDS011;1809;48.470;9.226;2023-04-03T06:41:03;1.63;;;1.63;;
3589;SDS011;1809;48.470;9.226;2023-04-03T06:43:29;2.30;;;2.10;;
3589;SDS011;1809;48.470;9.226;2023-04-03T06:45:56;2.23;;;2.13;;
3589;SDS011;1809;48.470;9.226;2023-04-03T06:48:21;3.63;;;2.70;;
3589;SDS011;1809;48.470;9.226;2023-04-03T06:50:47;2.83;;;2.63;;
3589;SDS011;1809;48.470;9.226;2023-04-03T06:53:12;2.90;;;2.60;;
3589;SDS011;1809;48.470;9.226;2023-04-03T06:55:37;3.33;;;2.50;;
3589;SDS011;1809;48.470;9.226;2023-04-03T06:58:03;4.83;;;2.70;;
3589;SDS011;1809;48.470;9.226;2023-04-03T07:00:29;6.90;;;3.53;;
3589;SDS011;1809;48.470;9.226;2023-04-03T07:02:55;2.97;;;2.67;;
3589;SDS011;1809;48.470;9.226;2023-04-03T07:05:22;3.87;;;2.50;;
3589;SDS011;1809;48.470;9.226;2023-04-03T07:07:47;3.40;;;3.10;;
3589;SDS011;1809;48.470;9.226;2023-04-03T07:10:14;3.20;;;2.90;;
3589;SDS011;1809;48.470;9.226;2023-04-03T07:12:40;6.53;;;2.80;;
3589;SDS011;1809;48.470;9.226;2023-04-03T07:15:06;7.43;;;2.47;;
3589;SDS011;1809;48.470;9.226;2023-04-03T07:17:32;6.17;;;2.87;;
3589;SDS011;1809;48.470;9.226;2023-04-03T07:20:03;3.93;;;2.77;;
3589;SDS011;1809;48.470;9.226;2023-04-03T07:22:32;2.43;;;2.33;;
3589;SDS011;1809;48.470;9.226;2023-04-03T07:24:58;2.90;;;2.70;;
3589;SDS011;1809;48.470;9.226;2023-04-03T07:27:26;3.73;;;3.10;;
3589;SDS011;1809;48.470;9.226;2023-04-03T07:29:52;3.60;;;3.30;;
3589;SDS011;1809;48.470;9.226;2023-04-03T07:32:18;3.00;;;2.57;;
3589;SDS011;1809;48.470;9.226;2023-04-03T07:34:44;3.13;;;2.93;;
3589;SDS011;1809;48.470;9.226;2023-04-03T07:37:10;2.63;;;2.43;;
3589;SDS011;1809;48.470;9.226;2023-04-03T07:39:36;4.13;;;3.10;;
3589;SDS011;1809;48.470;9.226;2023-04-03T07:42:01;2.83;;;2.63;;
3589;SDS011;1809;48.470;9.226;2023-04-03T07:44:27;2.67;;;2.57;;
3589;SDS011;1809;48.470;9.226;2023-04-03T07:46:53;3.37;;;3.10;;
3589;SDS011;1809;48.470;9.226;2023-04-03T07:49:20;5.73;;;3.10;;
3589;SDS011;1809;48.470;9.226;2023-04-03T07:51:48;2.50;;;2.40;;
3589;SDS011;1809;48.470;9.226;2023-04-03T07:54:14;2.90;;;2.80;;
3589;SDS011;1809;48.470;9.226;2023-04-03T07:56:40;5.60;;;3.03;;
3589;SDS011;1809;48.470;9.226;2023-04-03T07:59:07;11.90;;;3.90;;
3589;SDS011;1809;48.470;9.226;2023-04-03T08:01:34;5.33;;;3.33;;
3589;SDS011;1809;48.470;9.226;2023-04-03T08:04:02;2.90;;;2.67;;
3589;SDS011;1809;48.470;9.226;2023-04-03T08:06:28;3.33;;;2.60;;
3589;SDS011;1809;48.470;9.226;2023-04-03T08:08:57;9.77;;;3.57;;
3589;SDS011;1809;48.470;9.226;2023-04-03T08:11:24;4.20;;;2.90;;
3589;SDS011;1809;48.470;9.226;2023-04-03T08:13:51;2.90;;;2.70;;
3589;SDS011;1809;48.470;9.226;2023-04-03T08:16:18;3.20;;;3.00;;
3589;SDS011;1809;48.470;9.226;2023-04-03T08:18:46;3.03;;;2.83;;
3589;SDS011;1809;48.470;9.226;2023-04-03T08:21:13;3.07;;;2.83;;
3589;SDS011;1809;48.470;9.226;2023-04-03T08:23:40;6.60;;;3.27;;
3589;SDS011;1809;48.470;9.226;2023-04-03T08:26:07;7.20;;;3.43;;
3589;SDS011;1809;48.470;9.226;2023-04-03T08:28:41;3.47;;;2.87;;
3589;SDS011;1809;48.470;9.226;2023-04-03T08:31:16;3.70;;;2.40;;
3589;SDS011;1809;48.470;9.226;2023-04-03T08:33:44;6.90;;;3.80;;
3589;SDS011;1809;48.470;9.226;2023-04-03T08:36:18;3.40;;;3.10;;
3589;SDS011;1809;48.470;9.226;2023-04-03T08:38:48;2.40;;;2.30;;
3589;SDS011;1809;48.470;9.226;2023-04-03T08:43:55;3.13;;;2.53;;
3589;SDS011;1809;48.470;9.226;2023-04-03T08:46:23;2.70;;;2.50;;
3589;SDS011;1809;48.470;9.226;2023-04-03T08:48:59;6.53;;;4.87;;
3589;SDS011;1809;48.470;9.226;2023-04-03T08:51:25;4.27;;;3.37;;
3589;SDS011;1809;48.470;9.226;2023-04-03T08:53:58;7.93;;;5.33;;
3589;SDS011;1809;48.470;9.226;2023-04-03T08:56:30;3.20;;;3.00;;
3589;SDS011;1809;48.470;9.226;2023-04-03T08:58:59;5.97;;;3.33;;
3589;SDS011;1809;48.470;9.226;2023-04-03T09:01:34;3.10;;;2.90;;
3589;SDS011;1809;48.470;9.226;2023-04-03T09:04:05;4.27;;;3.33;;
3589;SDS011;1809;48.470;9.226;2023-04-03T09:06:36;4.90;;;4.50;;
3589;SDS011;1809;48.470;9.226;2023-04-03T09:09:11;5.40;;;4.03;;
3589;SDS011;1809;48.470;9.226;2023-04-03T09:11:46;4.63;;;3.23;;
3589;SDS011;1809;48.470;9.226;2023-04-03T09:14:49;4.27;;;3.93;;
3589;SDS011;1809;48.470;9.226;2023-04-03T09:20:17;3.03;;;2.77;;
3589;SDS011;1809;48.470;9.226;2023-04-03T09:22:45;3.17;;;2.93;;
3589;SDS011;1809;48.470;9.226;2023-04-03T09:25:18;3.07;;;2.87;;
3589;SDS011;1809;48.470;9.226;2023-04-03T09:27:52;3.90;;;2.77;;
3589;SDS011;1809;48.470;9.226;2023-04-03T09:30:23;3.20;;;3.00;;
3589;SDS011;1809;48.470;9.226;2023-04-03T09:32:54;4.60;;;2.77;;
3589;SDS011;1809;48.470;9.226;2023-04-03T09:35:28;12.53;;;3.10;;
3589;SDS011;1809;48.470;9.226;2023-04-03T09:38:00;3.07;;;2.87;;
3589;SDS011;1809;48.470;9.226;2023-04-03T09:40:36;3.63;;;2.67;;
3589;SDS011;1809;48.470;9.226;2023-04-03T09:43:20;2.80;;;2.57;;
3589;SDS011;1809;48.470;9.226;2023-04-03T09:45:48;10.30;;;3.53;;
3589;SDS011;1809;48.470;9.226;2023-04-03T09:48:19;3.73;;;2.97;;
3589;SDS011;1809;48.470;9.226;2023-04-03T09:58:43;5.30;;;3.20;;
3589;SDS011;1809;48.470;9.226;2023-04-03T10:01:28;4.70;;;3.17;;
3589;SDS011;1809;48.470;9.226;2023-04-03T10:06:34;10.03;;;3.73;;
3589;SDS011;1809;48.470;9.226;2023-04-03T10:09:07;2.63;;;2.40;;
3589;SDS011;1809;48.470;9.226;2023-04-03T10:11:58;3.00;;;2.80;;
3589;SDS011;1809;48.470;9.226;2023-04-03T10:14:38;6.73;;;3.07;;
3589;SDS011;1809;48.470;9.226;2023-04-03T10:20:19;3.70;;;3.40;;
3589;SDS011;1809;48.470;9.226;2023-04-03T10:23:27;3.07;;;2.80;;
3589;SDS011;1809;48.470;9.226;2023-04-03T10:26:24;2.93;;;2.70;;
3589;SDS011;1809;48.470;9.226;2023-04-03T10:29:02;5.03;;;3.10;;
3589;SDS011;1809;48.470;9.226;2023-04-03T10:31:49;5.33;;;3.10;;
3589;SDS011;1809;48.470;9.226;2023-04-03T10:39:44;3.20;;;2.90;;
3589;SDS011;1809;48.470;9.226;2023-04-03T10:45:14;2.13;;;2.03;;
3589;SDS011;1809;48.470;9.226;2023-04-03T10:48:02;3.30;;;3.00;;
3589;SDS011;1809;48.470;9.226;2023-04-03T10:55:58;4.80;;;3.30;;
3589;SDS011;1809;48.470;9.226;2023-04-03T10:58:39;7.73;;;2.60;;
3589;SDS011;1809;48.470;9.226;2023-04-03T11:01:13;4.87;;;3.70;;
3589;SDS011;1809;48.470;9.226;2023-04-03T11:03:45;2.50;;;2.40;;
3589;SDS011;1809;48.470;9.226;2023-04-03T11:06:15;3.93;;;3.20;;
3589;SDS011;1809;48.470;9.226;2023-04-03T11:09:01;3.37;;;3.27;;
3589;SDS011;1809;48.470;9.226;2023-04-03T11:11:32;3.00;;;2.80;;
3589;SDS011;1809;48.470;9.226;2023-04-03T11:14:05;3.17;;;2.60;;
3589;SDS011;1809;48.470;9.226;2023-04-03T11:16:42;3.53;;;3.23;;
3589;SDS011;1809;48.470;9.226;2023-04-03T11:19:24;4.30;;;3.17;;
3589;SDS011;1809;48.470;9.226;2023-04-03T11:22:11;3.67;;;3.30;;
3589;SDS011;1809;48.470;9.226;2023-04-03T11:24:51;2.97;;;2.77;;
3589;SDS011;1809;48.470;9.226;2023-04-03T11:27:30;3.20;;;2.53;;
3589;SDS011;1809;48.470;9.226;2023-04-03T11:30:05;3.90;;;2.43;;
3589;SDS011;1809;48.470;9.226;2023-04-03T11:35:35;3.63;;;3.30;;
3589;SDS011;1809;48.470;9.226;2023-04-03T11:38:03;10.57;;;2.90;;
3589;SDS011;1809;48.470;9.226;2023-04-03T11:40:33;2.80;;;2.30;;
3589;SDS011;1809;48.470;9.226;2023-04-03T11:45:56;3.33;;;3.03;;
3589;SDS011;1809;48.470;9.226;2023-04-03T11:50:58;3.13;;;2.83;;
3589;SDS011;1809;48.470;9.226;2023-04-03T11:58:30;3.80;;;3.50;;
3589;SDS011;1809;48.470;9.226;2023-04-03T12:01:01;4.47;;;2.90;;
3589;SDS011;1809;48.470;9.226;2023-04-03T12:13:38;2.17;;;2.07;;
3589;SDS011;1809;48.470;9.226;2023-04-03T12:16:20;4.60;;;2.57;;
3589;SDS011;1809;48.470;9.226;2023-04-03T12:18:58;1.90;;;1.80;;
3589;SDS011;1809;48.470;9.226;2023-04-03T12:29:38;3.57;;;2.50;;
3589;SDS011;1809;48.470;9.226;2023-04-03T12:41:14;2.13;;;2.03;;
3589;SDS011;1809;48.470;9.226;2023-04-03T12:56:42;5.43;;;3.30;;
3589;SDS011;1809;48.470;9.226;2023-04-03T12:59:21;3.17;;;2.97;;
3589;SDS011;1809;48.470;9.226;2023-04-03T13:01:58;3.83;;;2.83;;
3589;SDS011;1809;48.470;9.226;2023-04-03T13:04:26;8.03;;;3.13;;
3589;SDS011;1809;48.470;9.226;2023-04-03T13:06:53;4.40;;;3.30;;
3589;SDS011;1809;48.470;9.226;2023-04-03T13:09:20;2.77;;;2.50;;
3589;SDS011;1809;48.470;9.226;2023-04-03T13:11:51;2.47;;;2.20;;
3589;SDS011;1809;48.470;9.226;2023-04-03T13:14:29;7.20;;;3.10;;
3589;SDS011;1809;48.470;9.226;2023-04-03T13:16:56;2.60;;;2.40;;
3589;SDS011;1809;48.470;9.226;2023-04-03T13:19:29;3.70;;;2.13;;
3589;SDS011;1809;48.470;9.226;2023-04-03T13:21:59;4.30;;;2.50;;
3589;SDS011;1809;48.470;9.226;2023-04-03T13:24:31;4.47;;;2.93;;
3589;SDS011;1809;48.470;9.226;2023-04-03T13:27:00;3.50;;;2.60;;
3589;SDS011;1809;48.470;9.226;2023-04-03T13:29:27;3.80;;;2.40;;
3589;SDS011;1809;48.470;9.226;2023-04-03T13:31:56;4.30;;;3.03;;
3589;SDS011;1809;48.470;9.226;2023-04-03T13:34:23;1.97;;;1.87;;
3589;SDS011;1809;48.470;9.226;2023-04-03T13:41:44;2.50;;;2.00;;
3589;SDS011;1809;48.470;9.226;2023-04-03T13:46:42;6.00;;;2.53;;
3589;SDS011;1809;48.470;9.226;2023-04-03T13:49:21;6.57;;;2.17;;
3589;SDS011;1809;48.470;9.226;2023-04-03T13:51:48;3.10;;;2.80;;
3589;SDS011;1809;48.470;9.226;2023-04-03T13:54:24;4.27;;;2.77;;
3589;SDS011;1809;48.470;9.226;2023-04-03T13:56:55;3.07;;;2.67;;
3589;SDS011;1809;48.470;9.226;2023-04-03T14:01:50;3.60;;;3.30;;
3589;SDS011;1809;48.470;9.226;2023-04-03T14:06:50;2.80;;;2.60;;
3589;SDS011;1809;48.470;9.226;2023-04-03T14:09:17;2.70;;;2.50;;
3589;SDS011;1809;48.470;9.226;2023-04-03T14:11:44;2.60;;;2.40;;
3589;SDS011;1809;48.470;9.226;2023-04-03T14:14:18;6.80;;;2.90;;
3589;SDS011;1809;48.470;9.226;2023-04-03T14:16:47;3.50;;;2.70;;
3589;SDS011;1809;48.470;9.226;2023-04-03T14:19:27;3.10;;;2.77;;
3589;SDS011;1809;48.470;9.226;2023-04-03T14:21:58;8.40;;;2.53;;
3589;SDS011;1809;48.470;9.226;2023-04-03T14:24:25;3.20;;;2.90;;
3589;SDS011;1809;48.470;9.226;2023-04-03T14:26:53;2.90;;;2.70;;
3589;SDS011;1809;48.470;9.226;2023-04-03T14:29:19;2.57;;;2.37;;
3589;SDS011;1809;48.470;9.226;2023-04-03T14:31:47;6.63;;;2.10;;
3589;SDS011;1809;48.470;9.226;2023-04-03T14:34:15;5.20;;;2.70;;
3589;SDS011;1809;48.470;9.226;2023-04-03T14:36:41;5.07;;;3.67;;
3589;SDS011;1809;48.470;9.226;2023-04-03T14:39:10;3.30;;;3.07;;
3589;SDS011;1809;48.470;9.226;2023-04-03T14:41:41;7.90;;;6.50;;
3589;SDS011;1809;48.470;9.226;2023-04-03T14:44:07;4.50;;;3.20;;
3589;SDS011;1809;48.470;9.226;2023-04-03T14:46:35;4.83;;;4.40;;
3589;SDS011;1809;48.470;9.226;2023-04-03T14:49:02;12.13;;;6.87;;
3589;SDS011;1809;48.470;9.226;2023-04-03T14:51:32;4.00;;;3.27;;
3589;SDS011;1809;48.470;9.226;2023-04-03T14:53:58;5.77;;;3.77;;
3589;SDS011;1809;48.470;9.226;2023-04-03T14:56:26;4.90;;;4.20;;
3589;SDS011;1809;48.470;9.226;2023-04-03T14:58:55;9.33;;;2.90;;
3589;SDS011;1809;48.470;9.226;2023-04-03T15:01:22;5.10;;;3.27;;
3589;SDS011;1809;48.470;9.226;2023-04-03T15:03:48;4.47;;;4.07;;
3589;SDS011;1809;48.470;9.226;2023-04-03T15:06:14;7.67;;;3.80;;
3589;SDS011;1809;48.470;9.226;2023-04-03T15:08:41;4.60;;;3.00;;
3589;SDS011;1809;48.470;9.226;2023-04-03T15:11:08;8.33;;;4.87;;
3589;SDS011;1809;48.470;9.226;2023-04-03T15:13:35;5.47;;;3.63;;
3589;SDS011;1809;48.470;9.226;2023-04-03T15:16:01;8.73;;;4.07;;
3589;SDS011;1809;48.470;9.226;2023-04-03T15:18:27;4.83;;;3.20;;
3589;SDS011;1809;48.470;9.226;2023-04-03T15:20:55;4.60;;;4.13;;
3589;SDS011;1809;48.470;9.226;2023-04-03T15:23:21;6.70;;;4.00;;
3589;SDS011;1809;48.470;9.226;2023-04-03T15:25:51;8.03;;;4.57;;
3589;SDS011;1809;48.470;9.226;2023-04-03T15:28:21;7.43;;;2.87;;
3589;SDS011;1809;48.470;9.226;2023-04-03T15:30:50;4.23;;;3.47;;
3589;SDS011;1809;48.470;9.226;2023-04-03T15:33:15;4.97;;;4.10;;
3589;SDS011;1809;48.470;9.226;2023-04-03T15:35:41;5.90;;;3.10;;
3589;SDS011;1809;48.470;9.226;2023-04-03T15:38:07;6.27;;;3.10;;
3589;SDS011;1809;48.470;9.226;2023-04-03T15:40:32;3.10;;;2.90;;
3589;SDS011;1809;48.470;9.226;2023-04-03T15:42:58;9.63;;;3.70;;
3589;SDS011;1809;48.470;9.226;2023-04-03T15:45:23;2.73;;;2.53;;
3589;SDS011;1809;48.470;9.226;2023-04-03T15:47:48;4.33;;;2.70;;
3589;SDS011;1809;48.470;9.226;2023-04-03T15:50:14;6.37;;;2.70;;
3589;SDS011;1809;48.470;9.226;2023-04-03T15:52:40;2.80;;;2.57;;
3589;SDS011;1809;48.470;9.226;2023-04-03T15:55:05;3.67;;;2.77;;
3589;SDS011;1809;48.470;9.226;2023-04-03T15:57:31;2.90;;;2.60;;
3589;SDS011;1809;48.470;9.226;2023-04-03T15:59:56;3.67;;;2.80;;
3589;SDS011;1809;48.470;9.226;2023-04-03T16:02:22;3.27;;;2.97;;
3589;SDS011;1809;48.470;9.226;2023-04-03T16:04:48;3.10;;;2.70;;
3589;SDS011;1809;48.470;9.226;2023-04-03T16:07:14;4.07;;;3.33;;
3589;SDS011;1809;48.470;9.226;2023-04-03T16:09:39;6.93;;;3.77;;
3589;SDS011;1809;48.470;9.226;2023-04-03T16:12:05;6.63;;;5.50;;
3589;SDS011;1809;48.470;9.226;2023-04-03T16:14:30;3.63;;;3.33;;
3589;SDS011;1809;48.470;9.226;2023-04-03T16:16:56;3.33;;;3.03;;
3589;SDS011;1809;48.470;9.226;2023-04-03T16:19:23;4.93;;;4.00;;
3589;SDS011;1809;48.470;9.226;2023-04-03T16:21:49;4.03;;;2.87;;
3589;SDS011;1809;48.470;9.226;2023-04-03T16:24:15;3.20;;;3.00;;
3589;SDS011;1809;48.470;9.226;2023-04-03T16:26:40;5.47;;;3.20;;
3589;SDS011;1809;48.470;9.226;2023-04-03T16:29:05;2.43;;;2.30;;
3589;SDS011;1809;48.470;9.226;2023-04-03T16:31:31;5.00;;;2.63;;
3589;SDS011;1809;48.470;9.226;2023-04-03T16:33:58;4.90;;;3.60;;
3589;SDS011;1809;48.470;9.226;2023-04-03T16:36:24;6.63;;;3.37;;
3589;SDS011;1809;48.470;9.226;2023-04-03T16:38:50;2.50;;;2.30;;
3589;SDS011;1809;48.470;9.226;2023-04-03T16:41:16;6.33;;;4.70;;
3589;SDS011;1809;48.470;9.226;2023-04-03T16:43:41;3.00;;;2.80;;
3589;SDS011;1809;48.470;9.226;2023-04-03T16:46:06;4.40;;;3.43;;
3589;SDS011;1809;48.470;9.226;2023-04-03T16:48:32;3.20;;;3.00;;
3589;SDS011;1809;48.470;9.226;2023-04-03T16:50:57;5.80;;;3.93;;
3589;SDS011;1809;48.470;9.226;2023-04-03T16:53:25;3.40;;;3.10;;
3589;SDS011;1809;48.470;9.226;2023-04-03T16:55:51;3.93;;;3.30;;
3589;SDS011;1809;48.470;9.226;2023-04-03T16:58:16;8.90;;;3.50;;
3589;SDS011;1809;48.470;9.226;2023-04-03T17:00:42;3.80;;;3.47;;
3589;SDS011;1809;48.470;9.226;2023-04-03T17:03:07;3.37;;;2.90;;
3589;SDS011;1809;48.470;9.226;2023-04-03T17:05:33;4.30;;;3.30;;
3589;SDS011;1809;48.470;9.226;2023-04-03T17:07:59;12.07;;;7.57;;
3589;SDS011;1809;48.470;9.226;2023-04-03T17:10:25;8.57;;;6.20;;